sensor_id;sensor_type;location;lat;lon;timestamp;pressure;altitude;pressure_sealevel;temperature;humidity
6435;BME280;3250;42.694;23.278;2023-12-29T00:01:46;95513.28;;;3.69;85.96
6435;BME280;3250;42.694;23.278;2023-12-29T00:04:12;95514.59;;;3.73;86.29
6435;BME280;3250;42.694;23.278;2023-12-29T00:06:38;95501.03;;;3.61;86.16
6435;BME280;3250;42.694;23.278;2023-12-29T00:09:04;95514.69;;;3.63;85.92
6435;BME280;3250;42.694;23.278;2023-12-29T00:11:29;95458.09;;;3.22;87.23
6435;BME280;3250;42.694;23.278;2023-12-29T00:13:55;95497.22;;;3.56;88.15
6435;BME280;3250;42.694;23.278;2023-12-29T00:16:20;95498.19;;;3.55;86.91
6435;BME280;3250;42.694;23.278;2023-12-29T00:18:46;95486.19;;;3.54;86.25
6435;BME280;3250;42.694;23.278;2023-12-29T00:21:11;95507.06;;;3.62;85.82
6435;BME280;3250;42.694;23.278;2023-12-29T00:23:37;95508.31;;;3.58;85.36
6435;BME280;3250;42.694;23.278;2023-12-29T00:26:03;95506.22;;;3.61;84.63
6435;BME280;3250;42.694;23.278;2023-12-29T00:28:28;95499.47;;;3.51;84.66
6435;BME280;3250;42.694;23.278;2023-12-29T00:30:54;95496.75;;;3.34;85.82
6435;BME280;3250;42.694;23.278;2023-12-29T00:33:19;95499.41;;;3.42;86.21
6435;BME280;3250;42.694;23.278;2023-12-29T00:35:45;95491.16;;;3.47;85.78
6435;BME280;3250;42.694;23.278;2023-12-29T00:38:10;95494.44;;;3.31;85.74
6435;BME280;3250;42.694;23.278;2023-12-29T00:40:35;95498.34;;;3.27;85.78
6435;BME280;3250;42.694;23.278;2023-12-29T00:43:01;95494.16;;;3.34;85.39
6435;BME280;3250;42.694;23.278;2023-12-29T00:45:27;95491.50;;;3.26;84.51
6435;BME280;3250;42.694;23.278;2023-12-29T00:48:01;95492.38;;;3.17;84.75
6435;BME280;3250;42.694;23.278;2023-12-29T00:50:26;95493.97;;;3.10;85.13
6435;BME280;3250;42.694;23.278;2023-12-29T00:52:52;95490.91;;;3.15;85.20
6435;BME280;3250;42.694;23.278;2023-12-29T00:55:19;95493.50;;;3.15;85.19
6435;BME280;3250;42.694;23.278;2023-12-29T00:57:44;95490.63;;;3.00;85.53
6435;BME280;3250;42.694;23.278;2023-12-29T01:00:11;95471.06;;;2.96;85.58
6435;BME280;3250;42.694;23.278;2023-12-29T01:02:38;95484.31;;;3.02;86.06
6435;BME280;3250;42.694;23.278;2023-12-29T01:05:04;95482.59;;;3.11;85.63
6435;BME280;3250;42.694;23.278;2023-12-29T01:07:29;95481.53;;;3.04;85.02
6435;BME280;3250;42.694;23.278;2023-12-29T01:09:55;95479.09;;;3.02;86.31
6435;BME280;3250;42.694;23.278;2023-12-29T01:12:20;95485.53;;;3.16;86.68
6435;BME280;3250;42.694;23.278;2023-12-29T01:14:46;95486.88;;;3.20;86.62
6435;BME280;3250;42.694;23.278;2023-12-29T01:17:11;95490.16;;;3.22;86.18
6435;BME280;3250;42.694;23.278;2023-12-29T01:19:37;95480.00;;;3.11;86.40
6435;BME280;3250;42.694;23.278;2023-12-29T01:22:02;95497.19;;;2.94;87.49
6435;BME280;3250;42.694;23.278;2023-12-29T01:24:28;95495.22;;;3.06;86.96
6435;BME280;3250;42.694;23.278;2023-12-29T01:26:53;95498.69;;;2.97;86.83
6435;BME280;3250;42.694;23.278;2023-12-29T01:29:19;95467.59;;;2.42;88.87
6435;BME280;3250;42.694;23.278;2023-12-29T01:31:44;95491.47;;;2.55;90.75
6435;BME280;3250;42.694;23.278;2023-12-29T01:34:10;95499.13;;;2.75;89.80
6435;BME280;3250;42.694;23.278;2023-12-29T01:36:36;95493.25;;;2.73;90.14
6435;BME280;3250;42.694;23.278;2023-12-29T01:39:01;95497.13;;;2.86;89.71
6435;BME280;3250;42.694;23.278;2023-12-29T01:41:29;95497.28;;;2.67;91.13
6435;BME280;3250;42.694;23.278;2023-12-29T01:46:29;95495.81;;;2.82;90.31
6435;BME280;3250;42.694;23.278;2023-12-29T01:48:55;95490.22;;;2.77;90.04
6435;BME280;3250;42.694;23.278;2023-12-29T01:51:23;95494.53;;;2.86;89.03
6435;BME280;3250;42.694;23.278;2023-12-29T01:53:51;95458.72;;;2.62;88.55
6435;BME280;3250;42.694;23.278;2023-12-29T01:56:16;95483.53;;;2.75;88.06
6435;BME280;3250;42.694;23.278;2023-12-29T01:58:43;95476.31;;;2.69;89.31
6435;BME280;3250;42.694;23.278;2023-12-29T02:01:09;95473.50;;;2.80;89.15
6435;BME280;3250;42.694;23.278;2023-12-29T02:03:35;95476.72;;;2.74;89.31
6435;BME280;3250;42.694;23.278;2023-12-29T02:06:01;95474.38;;;2.71;88.44
6435;BME280;3250;42.694;23.278;2023-12-29T02:08:27;95467.34;;;2.81;88.05
6435;BME280;3250;42.694;23.278;2023-12-29T02:10:53;95463.66;;;2.83;87.62
6435;BME280;3250;42.694;23.278;2023-12-29T02:13:19;95458.66;;;2.90;86.90
6435;BME280;3250;42.694;23.278;2023-12-29T02:15:46;95447.91;;;2.85;87.40
6435;BME280;3250;42.694;23.278;2023-12-29T02:18:14;95446.91;;;2.86;86.84
6435;BME280;3250;42.694;23.278;2023-12-29T02:20:41;95445.06;;;2.78;87.28
6435;BME280;3250;42.694;23.278;2023-12-29T02:23:07;95440.31;;;2.91;86.78
6435;BME280;3250;42.694;23.278;2023-12-29T02:25:34;95442.16;;;2.99;86.43
6435;BME280;3250;42.694;23.278;2023-12-29T02:28:06;95443.22;;;2.88;86.88
6435;BME280;3250;42.694;23.278;2023-12-29T02:30:43;95431.84;;;2.89;86.79
6435;BME280;3250;42.694;23.278;2023-12-29T02:33:14;95434.22;;;2.83;88.25
6435;BME280;3250;42.694;23.278;2023-12-29T02:35:43;95434.09;;;2.84;87.73
6435;BME280;3250;42.694;23.278;2023-12-29T02:38:11;95439.78;;;2.88;87.17
6435;BME280;3250;42.694;23.278;2023-12-29T02:40:36;95443.94;;;2.81;86.00
6435;BME280;3250;42.694;23.278;2023-12-29T02:43:02;95422.13;;;2.74;86.29
6435;BME280;3250;42.694;23.278;2023-12-29T02:45:28;95435.19;;;2.82;86.03
6435;BME280;3250;42.694;23.278;2023-12-29T02:47:53;95426.72;;;2.80;85.95
6435;BME280;3250;42.694;23.278;2023-12-29T02:50:19;95398.13;;;2.62;86.26
6435;BME280;3250;42.694;23.278;2023-12-29T02:52:45;95419.88;;;2.79;86.33
6435;BME280;3250;42.694;23.278;2023-12-29T02:55:10;95412.53;;;2.74;86.71
6435;BME280;3250;42.694;23.278;2023-12-29T02:57:35;95402.00;;;2.58;87.44
6435;BME280;3250;42.694;23.278;2023-12-29T03:00:01;95421.22;;;2.83;86.65
6435;BME280;3250;42.694;23.278;2023-12-29T03:02:27;95397.03;;;2.64;87.36
6435;BME280;3250;42.694;23.278;2023-12-29T03:04:53;95409.94;;;2.74;87.26
6435;BME280;3250;42.694;23.278;2023-12-29T03:07:18;95396.00;;;2.57;88.54
6435;BME280;3250;42.694;23.278;2023-12-29T03:09:43;95398.09;;;2.26;89.30
6435;BME280;3250;42.694;23.278;2023-12-29T03:12:09;95400.03;;;2.42;90.03
6435;BME280;3250;42.694;23.278;2023-12-29T03:14:34;95394.66;;;2.53;89.42
6435;BME280;3250;42.694;23.278;2023-12-29T03:17:00;95397.25;;;2.53;89.12
6435;BME280;3250;42.694;23.278;2023-12-29T03:19:25;95392.66;;;2.47;89.08
6435;BME280;3250;42.694;23.278;2023-12-29T03:21:51;95400.44;;;2.47;88.51
6435;BME280;3250;42.694;23.278;2023-12-29T03:24:19;95398.03;;;2.36;89.07
6435;BME280;3250;42.694;23.278;2023-12-29T03:26:44;95399.75;;;2.45;89.13
6435;BME280;3250;42.694;23.278;2023-12-29T03:29:11;95389.38;;;2.45;88.96
6435;BME280;3250;42.694;23.278;2023-12-29T03:31:36;95391.53;;;2.50;88.11
6435;BME280;3250;42.694;23.278;2023-12-29T03:34:02;95389.44;;;2.53;88.04
6435;BME280;3250;42.694;23.278;2023-12-29T03:36:27;95386.16;;;2.51;87.69
6435;BME280;3250;42.694;23.278;2023-12-29T03:38:53;95387.94;;;2.51;88.57
6435;BME280;3250;42.694;23.278;2023-12-29T03:41:18;95393.00;;;2.52;88.17
6435;BME280;3250;42.694;23.278;2023-12-29T03:43:44;95390.25;;;2.36;88.46
6435;BME280;3250;42.694;23.278;2023-12-29T03:46:20;95402.50;;;2.44;87.58
6435;BME280;3250;42.694;23.278;2023-12-29T03:48:46;95391.81;;;2.29;88.28
6435;BME280;3250;42.694;23.278;2023-12-29T03:51:12;95374.88;;;2.25;87.97
6435;BME280;3250;42.694;23.278;2023-12-29T03:53:38;95407.47;;;2.37;87.52
6435;BME280;3250;42.694;23.278;2023-12-29T03:58:32;95405.53;;;2.21;88.35
6435;BME280;3250;42.694;23.278;2023-12-29T04:00:58;95404.72;;;2.21;88.76
6435;BME280;3250;42.694;23.278;2023-12-29T04:03:23;95410.66;;;2.31;88.76
6435;BME280;3250;42.694;23.278;2023-12-29T04:05:48;95400.66;;;2.36;88.97
6435;BME280;3250;42.694;23.278;2023-12-29T04:08:14;95403.19;;;2.46;89.06
6435;BME280;3250;42.694;23.278;2023-12-29T04:10:40;95398.50;;;2.49;87.91
6435;BME280;3250;42.694;23.278;2023-12-29T04:13:05;95394.44;;;2.47;87.97
6435;BME280;3250;42.694;23.278;2023-12-29T04:15:31;95402.91;;;2.49;86.89
6435;BME280;3250;42.694;23.278;2023-12-29T04:17:56;95405.34;;;2.50;86.39
6435;BME280;3250;42.694;23.278;2023-12-29T04:20:21;95346.22;;;2.17;86.94
6435;BME280;3250;42.694;23.278;2023-12-29T04:22:47;95402.06;;;2.48;86.91
6435;BME280;3250;42.694;23.278;2023-12-29T04:25:13;95396.81;;;2.40;87.74
6435;BME280;3250;42.694;23.278;2023-12-29T04:27:40;95405.16;;;2.34;87.47
6435;BME280;3250;42.694;23.278;2023-12-29T04:30:06;95403.03;;;2.30;87.23
6435;BME280;3250;42.694;23.278;2023-12-29T04:32:32;95391.06;;;2.19;87.21
6435;BME280;3250;42.694;23.278;2023-12-29T04:34:57;95401.81;;;2.06;87.97
6435;BME280;3250;42.694;23.278;2023-12-29T04:37:23;95409.19;;;2.01;88.45
6435;BME280;3250;42.694;23.278;2023-12-29T04:39:48;95416.84;;;2.03;88.29
6435;BME280;3250;42.694;23.278;2023-12-29T04:42:14;95414.38;;;2.01;88.36
6435;BME280;3250;42.694;23.278;2023-12-29T04:44:39;95408.38;;;2.01;88.04
6435;BME280;3250;42.694;23.278;2023-12-29T04:47:04;95404.31;;;1.98;87.26
6435;BME280;3250;42.694;23.278;2023-12-29T04:49:30;95412.22;;;1.97;87.34
6435;BME280;3250;42.694;23.278;2023-12-29T04:51:56;95414.47;;;2.09;87.67
6435;BME280;3250;42.694;23.278;2023-12-29T04:54:21;95398.34;;;2.15;87.14
6435;BME280;3250;42.694;23.278;2023-12-29T04:56:46;95399.44;;;2.13;86.36
6435;BME280;3250;42.694;23.278;2023-12-29T04:59:12;95396.25;;;2.19;87.13
6435;BME280;3250;42.694;23.278;2023-12-29T05:01:37;95400.38;;;2.12;86.76
6435;BME280;3250;42.694;23.278;2023-12-29T05:04:03;95399.03;;;2.08;86.83
6435;BME280;3250;42.694;23.278;2023-12-29T05:06:28;95389.38;;;2.00;86.52
6435;BME280;3250;42.694;23.278;2023-12-29T05:08:54;95394.16;;;2.05;86.48
6435;BME280;3250;42.694;23.278;2023-12-29T05:11:19;95393.25;;;1.96;86.65
6435;BME280;3250;42.694;23.278;2023-12-29T05:13:45;95392.56;;;1.94;86.98
6435;BME280;3250;42.694;23.278;2023-12-29T05:16:10;95390.50;;;1.98;87.12
6435;BME280;3250;42.694;23.278;2023-12-29T05:18:36;95393.97;;;1.88;86.79
6435;BME280;3250;42.694;23.278;2023-12-29T05:21:01;95390.50;;;1.70;87.34
6435;BME280;3250;42.694;23.278;2023-12-29T05:23:26;95390.00;;;1.84;86.92
6435;BME280;3250;42.694;23.278;2023-12-29T05:25:52;95394.09;;;1.87;86.78
6435;BME280;3250;42.694;23.278;2023-12-29T05:28:17;95390.34;;;1.99;86.75
6435;BME280;3250;42.694;23.278;2023-12-29T05:30:43;95389.50;;;1.81;87.26
6435;BME280;3250;42.694;23.278;2023-12-29T05:33:09;95395.38;;;1.73;87.38
6435;BME280;3250;42.694;23.278;2023-12-29T05:35:34;95386.47;;;1.85;87.93
6435;BME280;3250;42.694;23.278;2023-12-29T05:38:00;95387.00;;;1.89;87.54
6435;BME280;3250;42.694;23.278;2023-12-29T05:40:25;95380.44;;;1.85;87.54
6435;BME280;3250;42.694;23.278;2023-12-29T05:42:51;95395.06;;;1.86;87.54
6435;BME280;3250;42.694;23.278;2023-12-29T05:45:16;95400.88;;;1.70;89.21
6435;BME280;3250;42.694;23.278;2023-12-29T05:47:43;95409.44;;;1.80;88.71
6435;BME280;3250;42.694;23.278;2023-12-29T05:50:08;95403.53;;;1.88;88.37
6435;BME280;3250;42.694;23.278;2023-12-29T05:52:34;95394.88;;;1.97;88.25
6435;BME280;3250;42.694;23.278;2023-12-29T05:54:59;95398.72;;;1.93;87.86
6435;BME280;3250;42.694;23.278;2023-12-29T05:57:25;95396.16;;;1.83;88.31
6435;BME280;3250;42.694;23.278;2023-12-29T05:59:50;95393.47;;;1.75;88.33
6435;BME280;3250;42.694;23.278;2023-12-29T06:02:16;95384.97;;;1.56;88.78
6435;BME280;3250;42.694;23.278;2023-12-29T06:04:41;95389.59;;;1.62;89.08
6435;BME280;3250;42.694;23.278;2023-12-29T06:07:07;95364.41;;;1.44;88.82
6435;BME280;3250;42.694;23.278;2023-12-29T06:09:32;95388.41;;;1.74;88.23
6435;BME280;3250;42.694;23.278;2023-12-29T06:11:58;95392.31;;;1.60;87.88
6435;BME280;3250;42.694;23.278;2023-12-29T06:14:23;95392.13;;;1.71;87.88
6435;BME280;3250;42.694;23.278;2023-12-29T06:16:49;95392.97;;;1.72;87.91
6435;BME280;3250;42.694;23.278;2023-12-29T06:19:14;95389.66;;;1.79;87.85
6435;BME280;3250;42.694;23.278;2023-12-29T06:21:41;95387.56;;;1.83;87.25
6435;BME280;3250;42.694;23.278;2023-12-29T06:24:08;95398.03;;;1.91;87.11
6435;BME280;3250;42.694;23.278;2023-12-29T06:26:33;95397.53;;;1.87;87.30
6435;BME280;3250;42.694;23.278;2023-12-29T06:28:59;95398.28;;;1.98;87.42
6435;BME280;3250;42.694;23.278;2023-12-29T06:31:24;95401.31;;;1.93;87.99
6435;BME280;3250;42.694;23.278;2023-12-29T06:33:50;95397.13;;;2.10;87.61
6435;BME280;3250;42.694;23.278;2023-12-29T06:36:15;95402.78;;;2.23;86.87
6435;BME280;3250;42.694;23.278;2023-12-29T06:38:41;95405.81;;;2.18;86.71
6435;BME280;3250;42.694;23.278;2023-12-29T06:41:07;95390.81;;;2.12;86.51
6435;BME280;3250;42.694;23.278;2023-12-29T06:43:32;95373.84;;;2.18;86.58
6435;BME280;3250;42.694;23.278;2023-12-29T06:45:59;95390.41;;;2.52;86.91
6435;BME280;3250;42.694;23.278;2023-12-29T06:48:24;95399.28;;;3.03;86.07
6435;BME280;3250;42.694;23.278;2023-12-29T06:50:50;95383.75;;;3.63;84.86
6435;BME280;3250;42.694;23.278;2023-12-29T06:53:15;95400.53;;;4.10;81.97
6435;BME280;3250;42.694;23.278;2023-12-29T06:55:40;95380.38;;;4.21;79.91
6435;BME280;3250;42.694;23.278;2023-12-29T06:58:07;95410.94;;;4.69;79.38
6435;BME280;3250;42.694;23.278;2023-12-29T07:00:33;95417.19;;;5.00;77.50
6435;BME280;3250;42.694;23.278;2023-12-29T07:03:00;95398.56;;;5.52;75.02
6435;BME280;3250;42.694;23.278;2023-12-29T07:05:26;95409.88;;;5.99;73.98
6435;BME280;3250;42.694;23.278;2023-12-29T07:07:51;95403.41;;;6.57;72.96
6435;BME280;3250;42.694;23.278;2023-12-29T07:10:17;95400.03;;;6.71;71.98
6435;BME280;3250;42.694;23.278;2023-12-29T07:12:42;95385.03;;;6.88;71.64
6435;BME280;3250;42.694;23.278;2023-12-29T07:15:08;95409.34;;;7.72;68.88
6435;BME280;3250;42.694;23.278;2023-12-29T07:17:34;95417.03;;;8.17;67.29
6435;BME280;3250;42.694;23.278;2023-12-29T07:20:00;95410.63;;;7.90;67.97
6435;BME280;3250;42.694;23.278;2023-12-29T07:22:25;95416.94;;;8.25;66.24
6435;BME280;3250;42.694;23.278;2023-12-29T07:24:51;95402.47;;;7.71;66.78
6435;BME280;3250;42.694;23.278;2023-12-29T07:27:16;95398.28;;;7.09;69.48
6435;BME280;3250;42.694;23.278;2023-12-29T07:29:42;95390.09;;;6.90;70.68
6435;BME280;3250;42.694;23.278;2023-12-29T07:32:07;95383.06;;;7.80;69.72
6435;BME280;3250;42.694;23.278;2023-12-29T07:34:33;95393.53;;;8.75;66.96
6435;BME280;3250;42.694;23.278;2023-12-29T07:36:59;95387.41;;;9.87;63.83
6435;BME280;3250;42.694;23.278;2023-12-29T07:39:24;95389.72;;;11.05;59.25
6435;BME280;3250;42.694;23.278;2023-12-29T07:41:50;95395.84;;;11.98;56.53
6435;BME280;3250;42.694;23.278;2023-12-29T07:44:18;95387.31;;;12.98;53.42
6435;BME280;3250;42.694;23.278;2023-12-29T07:46:44;95403.63;;;13.83;51.68
6435;BME280;3250;42.694;23.278;2023-12-29T07:49:10;95395.94;;;14.36;49.82
6435;BME280;3250;42.694;23.278;2023-12-29T07:51:42;95390.66;;;14.36;48.48
6435;BME280;3250;42.694;23.278;2023-12-29T07:54:08;95399.19;;;14.93;48.93
6435;BME280;3250;42.694;23.278;2023-12-29T07:56:34;95383.88;;;16.13;45.01
6435;BME280;3250;42.694;23.278;2023-12-29T07:58:59;95405.25;;;16.81;42.60
6435;BME280;3250;42.694;23.278;2023-12-29T08:01:25;95386.94;;;16.68;41.42
6435;BME280;3250;42.694;23.278;2023-12-29T08:03:52;95400.03;;;17.43;40.32
6435;BME280;3250;42.694;23.278;2023-12-29T08:06:17;95397.34;;;18.22;38.58
6435;BME280;3250;42.694;23.278;2023-12-29T08:08:43;95394.88;;;18.37;37.29
6435;BME280;3250;42.694;23.278;2023-12-29T08:11:15;95392.53;;;18.40;38.53
6435;BME280;3250;42.694;23.278;2023-12-29T08:13:42;95402.84;;;18.15;39.55
6435;BME280;3250;42.694;23.278;2023-12-29T08:16:08;95386.41;;;17.56;39.90
6435;BME280;3250;42.694;23.278;2023-12-29T08:18:34;95400.06;;;17.60;39.13
6435;BME280;3250;42.694;23.278;2023-12-29T08:20:59;95402.44;;;17.28;39.72
6435;BME280;3250;42.694;23.278;2023-12-29T08:23:25;95402.22;;;16.89;39.45
6435;BME280;3250;42.694;23.278;2023-12-29T08:25:52;95402.44;;;16.48;40.26
6435;BME280;3250;42.694;23.278;2023-12-29T08:28:17;95395.41;;;15.83;41.01
6435;BME280;3250;42.694;23.278;2023-12-29T08:30:42;95407.28;;;16.28;41.27
6435;BME280;3250;42.694;23.278;2023-12-29T08:33:11;95410.84;;;15.63;41.41
6435;BME280;3250;42.694;23.278;2023-12-29T08:35:40;95403.63;;;15.52;42.23
6435;BME280;3250;42.694;23.278;2023-12-29T08:38:06;95402.94;;;15.15;42.61
6435;BME280;3250;42.694;23.278;2023-12-29T08:40:31;95411.00;;;14.79;44.88
6435;BME280;3250;42.694;23.278;2023-12-29T08:42:58;95402.25;;;14.42;45.14
6435;BME280;3250;42.694;23.278;2023-12-29T08:45:24;95408.16;;;14.19;45.96
6435;BME280;3250;42.694;23.278;2023-12-29T08:47:49;95406.03;;;13.84;46.98
6435;BME280;3250;42.694;23.278;2023-12-29T08:50:15;95397.31;;;14.27;46.14
6435;BME280;3250;42.694;23.278;2023-12-29T08:52:41;95399.94;;;14.27;46.16
6435;BME280;3250;42.694;23.278;2023-12-29T08:55:06;95410.38;;;14.22;46.88
6435;BME280;3250;42.694;23.278;2023-12-29T08:57:33;95403.81;;;14.06;47.12
6435;BME280;3250;42.694;23.278;2023-12-29T08:59:59;95390.50;;;13.70;48.18
6435;BME280;3250;42.694;23.278;2023-12-29T09:02:24;95403.72;;;13.70;48.34
6435;BME280;3250;42.694;23.278;2023-12-29T09:04:50;95406.72;;;13.55;48.29
6435;BME280;3250;42.694;23.278;2023-12-29T09:07:15;95414.59;;;13.62;47.98
6435;BME280;3250;42.694;23.278;2023-12-29T09:09:41;95407.06;;;13.34;49.56
6435;BME280;3250;42.694;23.278;2023-12-29T09:12:06;95408.41;;;13.68;48.95
6435;BME280;3250;42.694;23.278;2023-12-29T09:14:32;95398.00;;;13.23;49.02
6435;BME280;3250;42.694;23.278;2023-12-29T09:17:00;95390.91;;;13.10;50.19
6435;BME280;3250;42.694;23.278;2023-12-29T09:19:25;95392.38;;;13.38;50.84
6435;BME280;3250;42.694;23.278;2023-12-29T09:21:50;95385.47;;;13.05;50.30
6435;BME280;3250;42.694;23.278;2023-12-29T09:24:16;95372.78;;;12.31;52.38
6435;BME280;3250;42.694;23.278;2023-12-29T09:26:41;95373.50;;;11.94;53.89
6435;BME280;3250;42.694;23.278;2023-12-29T09:29:07;95372.94;;;11.79;54.98
6435;BME280;3250;42.694;23.278;2023-12-29T09:31:33;95361.78;;;11.37;56.78
6435;BME280;3250;42.694;23.278;2023-12-29T09:33:58;95354.88;;;11.49;57.02
6435;BME280;3250;42.694;23.278;2023-12-29T09:36:24;95366.44;;;11.75;56.54
6435;BME280;3250;42.694;23.278;2023-12-29T09:38:49;95353.38;;;12.06;56.17
6435;BME280;3250;42.694;23.278;2023-12-29T09:41:15;95340.16;;;12.19;55.80
6435;BME280;3250;42.694;23.278;2023-12-29T09:43:41;95358.13;;;12.42;55.35
6435;BME280;3250;42.694;23.278;2023-12-29T09:46:08;95345.91;;;12.47;54.67
6435;BME280;3250;42.694;23.278;2023-12-29T09:48:36;95340.69;;;12.41;54.88
6435;BME280;3250;42.694;23.278;2023-12-29T09:51:04;95357.00;;;12.63;54.20
6435;BME280;3250;42.694;23.278;2023-12-29T09:53:31;95351.06;;;12.36;54.62
6435;BME280;3250;42.694;23.278;2023-12-29T09:55:57;95355.53;;;12.35;54.98
6435;BME280;3250;42.694;23.278;2023-12-29T09:58:25;95346.38;;;12.38;54.58
6435;BME280;3250;42.694;23.278;2023-12-29T10:00:58;95339.72;;;12.22;54.80
6435;BME280;3250;42.694;23.278;2023-12-29T10:03:27;95323.84;;;12.35;55.34
6435;BME280;3250;42.694;23.278;2023-12-29T10:05:54;95323.97;;;12.54;55.20
6435;BME280;3250;42.694;23.278;2023-12-29T10:08:27;95305.66;;;12.59;54.92
6435;BME280;3250;42.694;23.278;2023-12-29T10:10:55;95326.94;;;12.70;55.08
6435;BME280;3250;42.694;23.278;2023-12-29T10:13:23;95313.72;;;12.70;54.76
6435;BME280;3250;42.694;23.278;2023-12-29T10:15:56;95322.63;;;12.76;53.81
6435;BME280;3250;42.694;23.278;2023-12-29T10:18:30;95308.81;;;12.74;55.30
6435;BME280;3250;42.694;23.278;2023-12-29T10:21:18;95309.81;;;12.41;53.74
6435;BME280;3250;42.694;23.278;2023-12-29T10:26:20;95275.19;;;12.12;54.20
6435;BME280;3250;42.694;23.278;2023-12-29T10:28:47;95294.56;;;11.99;54.47
6435;BME280;3250;42.694;23.278;2023-12-29T10:31:15;95297.19;;;11.99;54.74
6435;BME280;3250;42.694;23.278;2023-12-29T10:33:44;95274.34;;;11.53;55.71
6435;BME280;3250;42.694;23.278;2023-12-29T10:36:09;95282.66;;;11.63;56.83
6435;BME280;3250;42.694;23.278;2023-12-29T10:38:39;95277.94;;;11.85;58.26
6435;BME280;3250;42.694;23.278;2023-12-29T10:41:14;95268.78;;;11.94;57.41
6435;BME280;3250;42.694;23.278;2023-12-29T10:43:44;95258.88;;;11.90;57.94
6435;BME280;3250;42.694;23.278;2023-12-29T10:46:13;95252.41;;;11.79;58.67
6435;BME280;3250;42.694;23.278;2023-12-29T10:48:38;95252.03;;;11.56;57.45
6435;BME280;3250;42.694;23.278;2023-12-29T10:51:05;95249.81;;;11.53;58.20
6435;BME280;3250;42.694;23.278;2023-12-29T10:53:34;95228.63;;;11.15;59.17
6435;BME280;3250;42.694;23.278;2023-12-29T10:56:00;95238.09;;;11.29;58.42
6435;BME280;3250;42.694;23.278;2023-12-29T10:58:29;95241.72;;;11.34;59.00
6435;BME280;3250;42.694;23.278;2023-12-29T11:00:56;95226.75;;;11.28;58.56
6435;BME280;3250;42.694;23.278;2023-12-29T11:03:21;95228.75;;;11.33;59.66
6435;BME280;3250;42.694;23.278;2023-12-29T11:05:47;95225.94;;;11.41;59.56
6435;BME280;3250;42.694;23.278;2023-12-29T11:08:20;95225.69;;;11.49;59.59
6435;BME280;3250;42.694;23.278;2023-12-29T11:10:48;95223.66;;;11.45;59.18
6435;BME280;3250;42.694;23.278;2023-12-29T11:13:14;95216.56;;;11.52;58.49
6435;BME280;3250;42.694;23.278;2023-12-29T11:15:42;95209.47;;;11.46;59.01
6435;BME280;3250;42.694;23.278;2023-12-29T11:18:16;95190.66;;;11.29;59.58
6435;BME280;3250;42.694;23.278;2023-12-29T11:20:43;95205.41;;;11.43;60.33
6435;BME280;3250;42.694;23.278;2023-12-29T11:23:11;95201.41;;;11.41;59.52
6435;BME280;3250;42.694;23.278;2023-12-29T11:25:40;95203.44;;;11.32;59.67
6435;BME280;3250;42.694;23.278;2023-12-29T11:28:07;95184.00;;;11.20;60.01
6435;BME280;3250;42.694;23.278;2023-12-29T11:30:34;95201.22;;;11.29;59.96
6435;BME280;3250;42.694;23.278;2023-12-29T11:33:23;95177.50;;;11.22;60.95
6435;BME280;3250;42.694;23.278;2023-12-29T11:35:52;95201.19;;;11.35;60.17
6435;BME280;3250;42.694;23.278;2023-12-29T11:43:25;95191.25;;;11.38;61.45
6435;BME280;3250;42.694;23.278;2023-12-29T11:45:52;95162.69;;;11.28;59.34
6435;BME280;3250;42.694;23.278;2023-12-29T11:52:02;95187.97;;;11.49;59.56
6435;BME280;3250;42.694;23.278;2023-12-29T11:54:27;95186.34;;;11.54;59.30
6435;BME280;3250;42.694;23.278;2023-12-29T11:56:54;95183.09;;;11.52;59.80
6435;BME280;3250;42.694;23.278;2023-12-29T11:59:23;95177.44;;;11.49;60.06
6435;BME280;3250;42.694;23.278;2023-12-29T12:01:57;95177.22;;;11.44;60.38
6435;BME280;3250;42.694;23.278;2023-12-29T12:04:52;95168.72;;;11.48;59.88
6435;BME280;3250;42.694;23.278;2023-12-29T12:12:43;95169.13;;;11.45;59.58
6435;BME280;3250;42.694;23.278;2023-12-29T12:17:56;95167.66;;;11.56;59.48
6435;BME280;3250;42.694;23.278;2023-12-29T12:20:22;95164.41;;;11.60;59.59
6435;BME280;3250;42.694;23.278;2023-12-29T12:25:35;95135.44;;;11.54;59.15
6435;BME280;3250;42.694;23.278;2023-12-29T12:28:07;95167.56;;;11.89;58.99
6435;BME280;3250;42.694;23.278;2023-12-29T12:30:33;95168.94;;;11.98;60.21
6435;BME280;3250;42.694;23.278;2023-12-29T12:33:01;95172.31;;;12.05;60.27
6435;BME280;3250;42.694;23.278;2023-12-29T12:35:28;95166.25;;;12.04;59.19
6435;BME280;3250;42.694;23.278;2023-12-29T12:38:07;95161.34;;;12.08;58.79
6435;BME280;3250;42.694;23.278;2023-12-29T12:40:34;95175.28;;;12.22;59.08
6435;BME280;3250;42.694;23.278;2023-12-29T12:43:00;95169.72;;;12.30;58.72
6435;BME280;3250;42.694;23.278;2023-12-29T12:45:26;95172.50;;;12.41;58.46
6435;BME280;3250;42.694;23.278;2023-12-29T12:48:02;95147.81;;;12.29;58.96
6435;BME280;3250;42.694;23.278;2023-12-29T12:50:28;95168.84;;;12.42;58.68
6435;BME280;3250;42.694;23.278;2023-12-29T12:52:55;95146.38;;;12.33;59.07
6435;BME280;3250;42.694;23.278;2023-12-29T12:55:23;95161.94;;;12.41;59.30
6435;BME280;3250;42.694;23.278;2023-12-29T12:57:48;95167.78;;;12.50;59.27
6435;BME280;3250;42.694;23.278;2023-12-29T13:00:14;95154.34;;;12.52;58.93
6435;BME280;3250;42.694;23.278;2023-12-29T13:02:44;95164.47;;;12.55;59.10
6435;BME280;3250;42.694;23.278;2023-12-29T13:05:11;95144.44;;;12.47;59.77
6435;BME280;3250;42.694;23.278;2023-12-29T13:07:36;95162.63;;;12.62;59.61
6435;BME280;3250;42.694;23.278;2023-12-29T13:10:02;95131.75;;;12.56;59.38
6435;BME280;3250;42.694;23.278;2023-12-29T13:12:29;95150.16;;;12.69;59.90
6435;BME280;3250;42.694;23.278;2023-12-29T13:15:07;95167.56;;;12.76;59.89
6435;BME280;3250;42.694;23.278;2023-12-29T13:17:35;95162.50;;;12.75;59.85
6435;BME280;3250;42.694;23.278;2023-12-29T13:20:01;95156.31;;;12.81;59.48
6435;BME280;3250;42.694;23.278;2023-12-29T13:22:27;95164.03;;;12.82;59.52
6435;BME280;3250;42.694;23.278;2023-12-29T13:24:54;95147.09;;;12.90;59.14
6435;BME280;3250;42.694;23.278;2023-12-29T13:27:21;95155.41;;;12.94;59.22
6435;BME280;3250;42.694;23.278;2023-12-29T13:29:47;95147.56;;;12.87;59.67
6435;BME280;3250;42.694;23.278;2023-12-29T13:32:20;95150.78;;;12.89;59.77
6435;BME280;3250;42.694;23.278;2023-12-29T13:38:25;95137.00;;;12.87;60.01
6435;BME280;3250;42.694;23.278;2023-12-29T13:42:57;95153.41;;;12.89;60.25
6435;BME280;3250;42.694;23.278;2023-12-29T13:45:24;95143.22;;;12.93;60.45
6435;BME280;3250;42.694;23.278;2023-12-29T13:47:51;95151.16;;;12.93;60.13